sensor_id;sensor_type;location;lat;lon;timestamp;temperature;humidity
21678;DHT22;11000;50.360;7.582;2024-02-21T00:01:53;8.80;99.90
21678;DHT22;11000;50.360;7.582;2024-02-21T00:04:14;8.80;99.90
21678;DHT22;11000;50.360;7.582;2024-02-21T00:06:34;8.80;99.90
21678;DHT22;11000;50.360;7.582;2024-02-21T00:08:55;8.80;99.90
21678;DHT22;11000;50.360;7.582;2024-02-21T00:11:15;8.80;99.90
21678;DHT22;11000;50.360;7.582;2024-02-21T00:13:36;8.80;99.90
21678;DHT22;11000;50.360;7.582;2024-02-21T00:15:56;8.80;99.90
21678;DHT22;11000;50.360;7.582;2024-02-21T00:18:17;8.80;99.90
21678;DHT22;11000;50.360;7.582;2024-02-21T00:20:37;8.70;99.90
21678;DHT22;11000;50.360;7.582;2024-02-21T00:22:58;8.80;99.90
21678;DHT22;11000;50.360;7.582;2024-02-21T00:25:18;8.70;99.90
21678;DHT22;11000;50.360;7.582;2024-02-21T00:27:39;8.70;99.90
21678;DHT22;11000;50.360;7.582;2024-02-21T00:29:59;8.80;99.90
21678;DHT22;11000;50.360;7.582;2024-02-21T00:32:20;8.80;99.90
21678;DHT22;11000;50.360;7.582;2024-02-21T00:34:41;8.80;99.90
21678;DHT22;11000;50.360;7.582;2024-02-21T00:37:01;8.80;99.90
21678;DHT22;11000;50.360;7.582;2024-02-21T00:39:22;8.80;99.90
21678;DHT22;11000;50.360;7.582;2024-02-21T00:41:42;8.80;99.90
21678;DHT22;11000;50.360;7.582;2024-02-21T00:44:03;8.80;99.90
21678;DHT22;11000;50.360;7.582;2024-02-21T00:46:25;8.80;99.90
21678;DHT22;11000;50.360;7.582;2024-02-21T00:48:46;8.80;99.90
21678;DHT22;11000;50.360;7.582;2024-02-21T00:51:06;8.80;99.90
21678;DHT22;11000;50.360;7.582;2024-02-21T00:53:27;8.80;99.90
21678;DHT22;11000;50.360;7.582;2024-02-21T00:55:48;8.80;99.90
21678;DHT22;11000;50.360;7.582;2024-02-21T00:58:08;8.80;99.90
21678;DHT22;11000;50.360;7.582;2024-02-21T01:00:28;8.70;99.90
21678;DHT22;11000;50.360;7.582;2024-02-21T01:02:49;8.70;99.90
21678;DHT22;11000;50.360;7.582;2024-02-21T01:05:09;8.80;99.90
21678;DHT22;11000;50.360;7.582;2024-02-21T01:07:30;8.80;99.90
21678;DHT22;11000;50.360;7.582;2024-02-21T01:09:50;8.80;99.90
21678;DHT22;11000;50.360;7.582;2024-02-21T01:12:11;8.70;99.90
21678;DHT22;11000;50.360;7.582;2024-02-21T01:14:32;8.80;99.90
21678;DHT22;11000;50.360;7.582;2024-02-21T01:16:52;8.80;99.90
21678;DHT22;11000;50.360;7.582;2024-02-21T01:19:13;8.80;99.90
21678;DHT22;11000;50.360;7.582;2024-02-21T01:21:33;8.80;99.90
21678;DHT22;11000;50.360;7.582;2024-02-21T01:23:54;8.80;99.90
21678;DHT22;11000;50.360;7.582;2024-02-21T01:26:14;8.80;99.90
21678;DHT22;11000;50.360;7.582;2024-02-21T01:28:35;8.80;99.90
21678;DHT22;11000;50.360;7.582;2024-02-21T01:30:57;8.80;99.90
21678;DHT22;11000;50.360;7.582;2024-02-21T01:33:18;8.80;99.90
21678;DHT22;11000;50.360;7.582;2024-02-21T01:35:39;8.80;99.90
21678;DHT22;11000;50.360;7.582;2024-02-21T01:37:59;8.80;99.90
21678;DHT22;11000;50.360;7.582;2024-02-21T01:40:20;8.80;99.90
21678;DHT22;11000;50.360;7.582;2024-02-21T01:42:40;8.80;99.90
21678;DHT22;11000;50.360;7.582;2024-02-21T01:45:01;8.80;99.90
21678;DHT22;11000;50.360;7.582;2024-02-21T01:47:21;8.90;99.90
21678;DHT22;11000;50.360;7.582;2024-02-21T01:49:43;8.90;99.90
21678;DHT22;11000;50.360;7.582;2024-02-21T01:52:03;8.90;99.90
21678;DHT22;11000;50.360;7.582;2024-02-21T01:54:25;8.80;99.90
21678;DHT22;11000;50.360;7.582;2024-02-21T01:56:48;8.80;99.90
21678;DHT22;11000;50.360;7.582;2024-02-21T01:59:10;8.80;99.90
21678;DHT22;11000;50.360;7.582;2024-02-21T02:01:31;8.80;99.90
21678;DHT22;11000;50.360;7.582;2024-02-21T02:03:59;8.80;99.90
21678;DHT22;11000;50.360;7.582;2024-02-21T02:06:19;8.90;99.90
21678;DHT22;11000;50.360;7.582;2024-02-21T02:08:40;8.90;99.90
21678;DHT22;11000;50.360;7.582;2024-02-21T02:11:01;8.90;99.90
21678;DHT22;11000;50.360;7.582;2024-02-21T02:13:22;8.90;99.90
21678;DHT22;11000;50.360;7.582;2024-02-21T02:15:44;8.90;99.90
21678;DHT22;11000;50.360;7.582;2024-02-21T02:18:05;8.90;99.90
21678;DHT22;11000;50.360;7.582;2024-02-21T02:20:26;8.90;99.90
21678;DHT22;11000;50.360;7.582;2024-02-21T02:22:47;8.90;99.90
21678;DHT22;11000;50.360;7.582;2024-02-21T02:25:09;8.90;99.90
21678;DHT22;11000;50.360;7.582;2024-02-21T02:27:29;8.90;99.90
21678;DHT22;11000;50.360;7.582;2024-02-21T02:29:50;8.90;99.90
21678;DHT22;11000;50.360;7.582;2024-02-21T02:32:10;8.90;99.90
21678;DHT22;11000;50.360;7.582;2024-02-21T02:34:31;8.80;99.90
21678;DHT22;11000;50.360;7.582;2024-02-21T02:36:51;8.90;99.90
21678;DHT22;11000;50.360;7.582;2024-02-21T02:39:12;8.90;99.90
21678;DHT22;11000;50.360;7.582;2024-02-21T02:41:35;8.90;99.90
21678;DHT22;11000;50.360;7.582;2024-02-21T02:43:56;8.90;99.90
21678;DHT22;11000;50.360;7.582;2024-02-21T02:46:16;8.90;99.90
21678;DHT22;11000;50.360;7.582;2024-02-21T02:48:37;8.90;99.90
21678;DHT22;11000;50.360;7.582;2024-02-21T02:50:59;8.90;99.90
21678;DHT22;11000;50.360;7.582;2024-02-21T02:53:19;8.90;99.90
21678;DHT22;11000;50.360;7.582;2024-02-21T02:55:40;8.90;99.90
21678;DHT22;11000;50.360;7.582;2024-02-21T02:58:00;8.90;99.90
21678;DHT22;11000;50.360;7.582;2024-02-21T03:00:21;8.90;99.90
21678;DHT22;11000;50.360;7.582;2024-02-21T03:02:43;8.90;99.90
21678;DHT22;11000;50.360;7.582;2024-02-21T03:05:12;8.90;99.90
21678;DHT22;11000;50.360;7.582;2024-02-21T03:07:34;8.90;99.90
21678;DHT22;11000;50.360;7.582;2024-02-21T03:09:54;8.90;99.90
21678;DHT22;11000;50.360;7.582;2024-02-21T03:12:15;8.90;99.90
21678;DHT22;11000;50.360;7.582;2024-02-21T03:14:39;8.90;99.90
21678;DHT22;11000;50.360;7.582;2024-02-21T03:17:00;9.00;99.90
21678;DHT22;11000;50.360;7.582;2024-02-21T03:19:21;9.00;99.90
21678;DHT22;11000;50.360;7.582;2024-02-21T03:21:41;9.00;99.90
21678;DHT22;11000;50.360;7.582;2024-02-21T03:24:02;9.00;99.90
21678;DHT22;11000;50.360;7.582;2024-02-21T03:26:22;9.00;99.90
21678;DHT22;11000;50.360;7.582;2024-02-21T03:28:43;9.00;99.90
21678;DHT22;11000;50.360;7.582;2024-02-21T03:31:06;9.00;99.90
21678;DHT22;11000;50.360;7.582;2024-02-21T03:33:27;8.90;99.90
21678;DHT22;11000;50.360;7.582;2024-02-21T03:35:47;9.00;99.90
21678;DHT22;11000;50.360;7.582;2024-02-21T03:38:08;9.00;99.90
21678;DHT22;11000;50.360;7.582;2024-02-21T03:40:28;8.90;99.90
21678;DHT22;11000;50.360;7.582;2024-02-21T03:42:49;8.90;99.90
21678;DHT22;11000;50.360;7.582;2024-02-21T03:45:09;8.90;99.90
21678;DHT22;11000;50.360;7.582;2024-02-21T03:47:30;8.90;99.90
21678;DHT22;11000;50.360;7.582;2024-02-21T03:49:50;8.90;99.90
21678;DHT22;11000;50.360;7.582;2024-02-21T03:52:11;9.00;99.90
21678;DHT22;11000;50.360;7.582;2024-02-21T03:54:31;8.90;99.90
21678;DHT22;11000;50.360;7.582;2024-02-21T03:56:52;9.00;99.90
21678;DHT22;11000;50.360;7.582;2024-02-21T03:59:12;8.90;99.90
21678;DHT22;11000;50.360;7.582;2024-02-21T04:01:34;8.90;99.90
21678;DHT22;11000;50.360;7.582;2024-02-21T04:03:54;8.90;99.90
21678;DHT22;11000;50.360;7.582;2024-02-21T04:06:15;8.90;99.90
21678;DHT22;11000;50.360;7.582;2024-02-21T04:08:36;8.90;99.90
21678;DHT22;11000;50.360;7.582;2024-02-21T04:10:56;8.90;99.90
21678;DHT22;11000;50.360;7.582;2024-02-21T04:13:17;8.90;99.90
21678;DHT22;11000;50.360;7.582;2024-02-21T04:15:37;8.90;99.90
21678;DHT22;11000;50.360;7.582;2024-02-21T04:17:58;8.90;99.90
21678;DHT22;11000;50.360;7.582;2024-02-21T04:20:18;8.90;99.90
21678;DHT22;11000;50.360;7.582;2024-02-21T04:22:39;8.90;99.90
21678;DHT22;11000;50.360;7.582;2024-02-21T04:25:00;8.90;99.90
21678;DHT22;11000;50.360;7.582;2024-02-21T04:27:20;8.90;99.90
21678;DHT22;11000;50.360;7.582;2024-02-21T04:29:41;8.90;99.90
21678;DHT22;11000;50.360;7.582;2024-02-21T04:32:02;8.90;99.90
21678;DHT22;11000;50.360;7.582;2024-02-21T04:34:22;8.90;99.90
21678;DHT22;11000;50.360;7.582;2024-02-21T04:36:43;8.90;99.90
21678;DHT22;11000;50.360;7.582;2024-02-21T04:39:04;8.90;99.90
21678;DHT22;11000;50.360;7.582;2024-02-21T04:41:24;8.90;99.90
21678;DHT22;11000;50.360;7.582;2024-02-21T04:43:48;8.90;99.90
21678;DHT22;11000;50.360;7.582;2024-02-21T04:46:08;8.90;99.90
21678;DHT22;11000;50.360;7.582;2024-02-21T04:48:30;8.90;99.90
21678;DHT22;11000;50.360;7.582;2024-02-21T04:50:50;8.90;99.90
21678;DHT22;11000;50.360;7.582;2024-02-21T04:53:11;8.90;99.90
21678;DHT22;11000;50.360;7.582;2024-02-21T04:55:31;8.90;99.90
21678;DHT22;11000;50.360;7.582;2024-02-21T04:57:52;8.90;99.90
21678;DHT22;11000;50.360;7.582;2024-02-21T05:00:12;8.90;99.90
21678;DHT22;11000;50.360;7.582;2024-02-21T05:02:33;8.90;99.90
21678;DHT22;11000;50.360;7.582;2024-02-21T05:04:54;8.90;99.90
21678;DHT22;11000;50.360;7.582;2024-02-21T05:07:14;8.90;99.90
21678;DHT22;11000;50.360;7.582;2024-02-21T05:09:34;8.90;99.90
21678;DHT22;11000;50.360;7.582;2024-02-21T05:11:55;8.90;99.90
21678;DHT22;11000;50.360;7.582;2024-02-21T05:14:15;8.90;99.90
21678;DHT22;11000;50.360;7.582;2024-02-21T05:16:36;8.90;99.90
21678;DHT22;11000;50.360;7.582;2024-02-21T05:18:56;8.90;99.90
21678;DHT22;11000;50.360;7.582;2024-02-21T05:21:17;8.90;99.90
21678;DHT22;11000;50.360;7.582;2024-02-21T05:23:38;8.90;99.90
21678;DHT22;11000;50.360;7.582;2024-02-21T05:25:59;8.90;99.90
21678;DHT22;11000;50.360;7.582;2024-02-21T05:28:20;8.90;99.90
21678;DHT22;11000;50.360;7.582;2024-02-21T05:30:40;8.90;99.90
21678;DHT22;11000;50.360;7.582;2024-02-21T05:33:06;8.90;99.90
21678;DHT22;11000;50.360;7.582;2024-02-21T05:35:27;8.80;99.90
21678;DHT22;11000;50.360;7.582;2024-02-21T05:37:48;8.80;99.90
21678;DHT22;11000;50.360;7.582;2024-02-21T05:40:13;8.80;99.90
21678;DHT22;11000;50.360;7.582;2024-02-21T05:42:33;8.90;99.90
21678;DHT22;11000;50.360;7.582;2024-02-21T05:44:54;8.90;99.90
21678;DHT22;11000;50.360;7.582;2024-02-21T05:47:14;8.90;99.90
21678;DHT22;11000;50.360;7.582;2024-02-21T05:49:36;8.90;99.90
21678;DHT22;11000;50.360;7.582;2024-02-21T05:51:57;8.80;99.90
21678;DHT22;11000;50.360;7.582;2024-02-21T05:54:17;8.80;99.90
21678;DHT22;11000;50.360;7.582;2024-02-21T05:56:38;8.80;99.90
21678;DHT22;11000;50.360;7.582;2024-02-21T05:58:58;8.80;99.90
21678;DHT22;11000;50.360;7.582;2024-02-21T06:01:19;8.80;99.90
21678;DHT22;11000;50.360;7.582;2024-02-21T06:03:39;8.80;99.90
21678;DHT22;11000;50.360;7.582;2024-02-21T06:06:01;8.80;99.90
21678;DHT22;11000;50.360;7.582;2024-02-21T06:08:21;8.80;99.90
21678;DHT22;11000;50.360;7.582;2024-02-21T06:10:42;8.80;99.90
21678;DHT22;11000;50.360;7.582;2024-02-21T06:13:02;8.80;99.90
21678;DHT22;11000;50.360;7.582;2024-02-21T06:15:23;8.70;99.90
21678;DHT22;11000;50.360;7.582;2024-02-21T06:17:43;8.70;99.90
21678;DHT22;11000;50.360;7.582;2024-02-21T06:20:04;8.70;99.90
21678;DHT22;11000;50.360;7.582;2024-02-21T06:22:25;8.70;99.90
21678;DHT22;11000;50.360;7.582;2024-02-21T06:24:45;8.70;99.90
21678;DHT22;11000;50.360;7.582;2024-02-21T06:27:06;8.70;99.90
21678;DHT22;11000;50.360;7.582;2024-02-21T06:29:26;8.70;99.90
21678;DHT22;11000;50.360;7.582;2024-02-21T06:31:47;8.70;99.90
21678;DHT22;11000;50.360;7.582;2024-02-21T06:34:07;8.70;99.90
21678;DHT22;11000;50.360;7.582;2024-02-21T06:36:28;8.70;99.90
21678;DHT22;11000;50.360;7.582;2024-02-21T06:38:49;8.80;99.90
21678;DHT22;11000;50.360;7.582;2024-02-21T06:41:16;8.70;99.90
21678;DHT22;11000;50.360;7.582;2024-02-21T06:43:38;8.80;99.90
21678;DHT22;11000;50.360;7.582;2024-02-21T06:45:59;8.70;99.90
21678;DHT22;11000;50.360;7.582;2024-02-21T06:48:19;8.70;99.90
21678;DHT22;11000;50.360;7.582;2024-02-21T06:50:40;8.70;99.90
21678;DHT22;11000;50.360;7.582;2024-02-21T06:53:00;8.70;99.90
21678;DHT22;11000;50.360;7.582;2024-02-21T06:55:21;8.70;99.90
21678;DHT22;11000;50.360;7.582;2024-02-21T06:57:41;8.70;99.90
21678;DHT22;11000;50.360;7.582;2024-02-21T07:00:02;8.70;99.90
21678;DHT22;11000;50.360;7.582;2024-02-21T07:02:23;8.70;99.90
21678;DHT22;11000;50.360;7.582;2024-02-21T07:04:43;8.70;99.90
21678;DHT22;11000;50.360;7.582;2024-02-21T07:07:04;8.80;99.90
21678;DHT22;11000;50.360;7.582;2024-02-21T07:09:24;8.70;99.90
21678;DHT22;11000;50.360;7.582;2024-02-21T07:11:45;8.70;99.90
21678;DHT22;11000;50.360;7.582;2024-02-21T07:14:05;8.80;99.90
21678;DHT22;11000;50.360;7.582;2024-02-21T07:16:26;8.70;99.90
21678;DHT22;11000;50.360;7.582;2024-02-21T07:18:47;8.70;99.90
21678;DHT22;11000;50.360;7.582;2024-02-21T07:21:07;8.80;99.90
21678;DHT22;11000;50.360;7.582;2024-02-21T07:23:28;8.80;99.90
21678;DHT22;11000;50.360;7.582;2024-02-21T07:25:48;8.90;99.90
21678;DHT22;11000;50.360;7.582;2024-02-21T07:28:08;8.80;99.90
21678;DHT22;11000;50.360;7.582;2024-02-21T07:30:29;8.80;99.90
21678;DHT22;11000;50.360;7.582;2024-02-21T07:32:50;8.90;99.90
21678;DHT22;11000;50.360;7.582;2024-02-21T07:35:11;8.80;99.90
21678;DHT22;11000;50.360;7.582;2024-02-21T07:37:32;8.80;99.90
21678;DHT22;11000;50.360;7.582;2024-02-21T07:39:52;8.80;99.90
21678;DHT22;11000;50.360;7.582;2024-02-21T07:42:13;8.80;99.90
21678;DHT22;11000;50.360;7.582;2024-02-21T07:44:34;8.80;99.90
21678;DHT22;11000;50.360;7.582;2024-02-21T07:46:54;8.90;99.90
21678;DHT22;11000;50.360;7.582;2024-02-21T07:49:15;8.90;99.90
21678;DHT22;11000;50.360;7.582;2024-02-21T07:51:35;8.90;99.90
21678;DHT22;11000;50.360;7.582;2024-02-21T07:53:56;9.00;99.90
21678;DHT22;11000;50.360;7.582;2024-02-21T07:56:17;9.00;99.90
21678;DHT22;11000;50.360;7.582;2024-02-21T07:58:37;9.00;99.90
21678;DHT22;11000;50.360;7.582;2024-02-21T08:00:58;9.00;99.90
21678;DHT22;11000;50.360;7.582;2024-02-21T08:03:18;9.10;99.90
21678;DHT22;11000;50.360;7.582;2024-02-21T08:05:39;9.10;99.90
21678;DHT22;11000;50.360;7.582;2024-02-21T08:07:59;9.00;99.90
21678;DHT22;11000;50.360;7.582;2024-02-21T08:10:20;9.10;99.90
21678;DHT22;11000;50.360;7.582;2024-02-21T08:12:40;9.10;99.90
21678;DHT22;11000;50.360;7.582;2024-02-21T08:15:01;9.20;99.90
21678;DHT22;11000;50.360;7.582;2024-02-21T08:17:23;9.20;99.90
21678;DHT22;11000;50.360;7.582;2024-02-21T08:19:44;9.20;99.90
21678;DHT22;11000;50.360;7.582;2024-02-21T08:22:04;9.20;99.90
21678;DHT22;11000;50.360;7.582;2024-02-21T08:24:25;9.20;99.90
21678;DHT22;11000;50.360;7.582;2024-02-21T08:26:45;9.30;99.90
21678;DHT22;11000;50.360;7.582;2024-02-21T08:29:06;9.30;99.90
21678;DHT22;11000;50.360;7.582;2024-02-21T08:31:26;9.30;99.90
21678;DHT22;11000;50.360;7.582;2024-02-21T08:33:54;9.30;99.90
21678;DHT22;11000;50.360;7.582;2024-02-21T08:36:19;9.40;99.90
21678;DHT22;11000;50.360;7.582;2024-02-21T08:38:40;9.50;99.90
21678;DHT22;11000;50.360;7.582;2024-02-21T08:41:00;9.50;99.90
21678;DHT22;11000;50.360;7.582;2024-02-21T08:43:21;9.60;99.90
21678;DHT22;11000;50.360;7.582;2024-02-21T08:45:41;9.60;99.90
21678;DHT22;11000;50.360;7.582;2024-02-21T08:48:02;9.70;99.90
21678;DHT22;11000;50.360;7.582;2024-02-21T08:50:23;9.70;99.90
21678;DHT22;11000;50.360;7.582;2024-02-21T08:52:43;9.80;99.90
21678;DHT22;11000;50.360;7.582;2024-02-21T08:55:04;9.80;99.90
21678;DHT22;11000;50.360;7.582;2024-02-21T08:57:24;9.80;99.90
21678;DHT22;11000;50.360;7.582;2024-02-21T08:59:45;9.80;99.90
21678;DHT22;11000;50.360;7.582;2024-02-21T09:02:07;9.80;99.90
21678;DHT22;11000;50.360;7.582;2024-02-21T09:04:29;9.80;99.90
21678;DHT22;11000;50.360;7.582;2024-02-21T09:06:49;9.80;99.90
21678;DHT22;11000;50.360;7.582;2024-02-21T09:09:10;9.80;99.90
21678;DHT22;11000;50.360;7.582;2024-02-21T09:11:30;9.80;99.90
21678;DHT22;11000;50.360;7.582;2024-02-21T09:13:51;9.80;99.90
21678;DHT22;11000;50.360;7.582;2024-02-21T09:16:11;9.90;99.90
21678;DHT22;11000;50.360;7.582;2024-02-21T09:18:32;9.90;99.90
21678;DHT22;11000;50.360;7.582;2024-02-21T09:20:52;10.00;99.90
21678;DHT22;11000;50.360;7.582;2024-02-21T09:23:13;10.10;99.90
21678;DHT22;11000;50.360;7.582;2024-02-21T09:25:34;10.10;99.90
21678;DHT22;11000;50.360;7.582;2024-02-21T09:27:55;10.00;99.90
21678;DHT22;11000;50.360;7.582;2024-02-21T09:30:15;10.10;99.90
21678;DHT22;11000;50.360;7.582;2024-02-21T09:32:36;10.10;99.90
21678;DHT22;11000;50.360;7.582;2024-02-21T09:34:56;10.10;99.90
21678;DHT22;11000;50.360;7.582;2024-02-21T09:37:17;10.20;99.90
21678;DHT22;11000;50.360;7.582;2024-02-21T09:39:37;10.30;99.90
21678;DHT22;11000;50.360;7.582;2024-02-21T09:42:05;10.40;99.90
21678;DHT22;11000;50.360;7.582;2024-02-21T09:44:31;10.40;99.90
21678;DHT22;11000;50.360;7.582;2024-02-21T09:47:01;10.30;99.90
21678;DHT22;11000;50.360;7.582;2024-02-21T09:49:31;10.30;99.90
21678;DHT22;11000;50.360;7.582;2024-02-21T09:51:54;10.40;99.90
21678;DHT22;11000;50.360;7.582;2024-02-21T09:54:15;10.40;99.90
21678;DHT22;11000;50.360;7.582;2024-02-21T09:56:36;10.50;99.90
21678;DHT22;11000;50.360;7.582;2024-02-21T09:58:57;10.50;99.90
21678;DHT22;11000;50.360;7.582;2024-02-21T10:01:18;10.50;99.90
21678;DHT22;11000;50.360;7.582;2024-02-21T10:03:39;10.50;99.90
21678;DHT22;11000;50.360;7.582;2024-02-21T10:06:00;10.50;99.90
21678;DHT22;11000;50.360;7.582;2024-02-21T10:08:21;10.50;99.90
21678;DHT22;11000;50.360;7.582;2024-02-21T10:10:45;10.50;99.90
21678;DHT22;11000;50.360;7.582;2024-02-21T10:13:06;10.50;99.90
21678;DHT22;11000;50.360;7.582;2024-02-21T10:15:28;10.60;99.90
21678;DHT22;11000;50.360;7.582;2024-02-21T10:17:49;10.60;99.90
21678;DHT22;11000;50.360;7.582;2024-02-21T10:20:10;10.60;99.90
21678;DHT22;11000;50.360;7.582;2024-02-21T10:22:31;10.60;99.90
21678;DHT22;11000;50.360;7.582;2024-02-21T10:24:56;10.50;99.90
21678;DHT22;11000;50.360;7.582;2024-02-21T10:27:26;10.60;99.90
21678;DHT22;11000;50.360;7.582;2024-02-21T10:29:49;10.70;99.90
21678;DHT22;11000;50.360;7.582;2024-02-21T10:32:13;10.70;99.90
21678;DHT22;11000;50.360;7.582;2024-02-21T10:34:34;10.80;99.90
21678;DHT22;11000;50.360;7.582;2024-02-21T10:37:01;10.80;99.90
21678;DHT22;11000;50.360;7.582;2024-02-21T10:39:21;10.90;99.90
21678;DHT22;11000;50.360;7.582;2024-02-21T10:41:42;10.90;99.90
21678;DHT22;11000;50.360;7.582;2024-02-21T10:44:05;11.10;99.90
21678;DHT22;11000;50.360;7.582;2024-02-21T10:46:26;11.10;99.90
21678;DHT22;11000;50.360;7.582;2024-02-21T10:48:51;11.20;99.90
21678;DHT22;11000;50.360;7.582;2024-02-21T10:51:19;11.20;99.90
21678;DHT22;11000;50.360;7.582;2024-02-21T10:56:34;11.30;99.90
21678;DHT22;11000;50.360;7.582;2024-02-21T10:58:58;11.40;99.90
21678;DHT22;11000;50.360;7.582;2024-02-21T11:01:19;11.30;99.90
21678;DHT22;11000;50.360;7.582;2024-02-21T11:03:39;11.30;99.90
21678;DHT22;11000;50.360;7.582;2024-02-21T11:06:01;11.20;99.90
21678;DHT22;11000;50.360;7.582;2024-02-21T11:08:21;11.30;99.90
21678;DHT22;11000;50.360;7.582;2024-02-21T11:10:46;11.30;99.90
21678;DHT22;11000;50.360;7.582;2024-02-21T11:13:10;11.30;99.90
21678;DHT22;11000;50.360;7.582;2024-02-21T11:15:30;11.30;99.90
21678;DHT22;11000;50.360;7.582;2024-02-21T11:17:55;11.30;99.90
21678;DHT22;11000;50.360;7.582;2024-02-21T11:20:16;11.30;99.90
21678;DHT22;11000;50.360;7.582;2024-02-21T11:22:44;11.20;99.90
21678;DHT22;11000;50.360;7.582;2024-02-21T11:25:07;11.30;99.90
21678;DHT22;11000;50.360;7.582;2024-02-21T11:27:34;11.20;99.90
21678;DHT22;11000;50.360;7.582;2024-02-21T11:29:56;11.10;99.90
21678;DHT22;11000;50.360;7.582;2024-02-21T11:32:18;11.20;99.90
21678;DHT22;11000;50.360;7.582;2024-02-21T11:34:40;11.30;99.90
21678;DHT22;11000;50.360;7.582;2024-02-21T11:37:01;11.40;99.90
21678;DHT22;11000;50.360;7.582;2024-02-21T11:39:23;11.50;99.90
21678;DHT22;11000;50.360;7.582;2024-02-21T11:41:44;11.60;99.90
21678;DHT22;11000;50.360;7.582;2024-02-21T11:44:05;11.60;99.90
21678;DHT22;11000;50.360;7.582;2024-02-21T11:46:25;11.70;99.90
21678;DHT22;11000;50.360;7.582;2024-02-21T11:48:46;11.60;99.90
21678;DHT22;11000;50.360;7.582;2024-02-21T11:51:10;11.60;99.90
21678;DHT22;11000;50.360;7.582;2024-02-21T11:53:31;11.60;99.90
21678;DHT22;11000;50.360;7.582;2024-02-21T11:55:51;11.60;99.90
21678;DHT22;11000;50.360;7.582;2024-02-21T11:58:12;11.70;99.90
21678;DHT22;11000;50.360;7.582;2024-02-21T12:00:32;11.70;99.90
21678;DHT22;11000;50.360;7.582;2024-02-21T12:02:53;11.70;99.90
21678;DHT22;11000;50.360;7.582;2024-02-21T12:05:16;11.70;99.90
21678;DHT22;11000;50.360;7.582;2024-02-21T12:07:37;11.80;99.90
21678;DHT22;11000;50.360;7.582;2024-02-21T12:10:00;11.70;99.90
21678;DHT22;11000;50.360;7.582;2024-02-21T12:12:21;11.70;99.90
21678;DHT22;11000;50.360;7.582;2024-02-21T12:14:41;11.80;99.90
21678;DHT22;11000;50.360;7.582;2024-02-21T12:17:02;11.50;99.90
21678;DHT22;11000;50.360;7.582;2024-02-21T12:19:29;11.60;99.90
21678;DHT22;11000;50.360;7.582;2024-02-21T12:21:50;11.70;99.90
21678;DHT22;11000;50.360;7.582;2024-02-21T12:24:15;11.80;99.90
21678;DHT22;11000;50.360;7.582;2024-02-21T12:26:36;11.80;99.90
21678;DHT22;11000;50.360;7.582;2024-02-21T12:28:56;11.80;99.90
21678;DHT22;11000;50.360;7.582;2024-02-21T12:31:17;11.70;99.90
21678;DHT22;11000;50.360;7.582;2024-02-21T12:33:37;11.80;99.90
21678;DHT22;11000;50.360;7.582;2024-02-21T12:35:58;11.80;99.90
21678;DHT22;11000;50.360;7.582;2024-02-21T12:38:18;11.80;99.90
21678;DHT22;11000;50.360;7.582;2024-02-21T12:40:41;11.80;99.90
21678;DHT22;11000;50.360;7.582;2024-02-21T12:43:02;11.80;99.90
21678;DHT22;11000;50.360;7.582;2024-02-21T12:45:23;11.80;99.90
21678;DHT22;11000;50.360;7.582;2024-02-21T12:47:43;11.80;99.90
21678;DHT22;11000;50.360;7.582;2024-02-21T12:50:04;11.80;99.90
21678;DHT22;11000;50.360;7.582;2024-02-21T12:52:27;11.80;99.90
21678;DHT22;11000;50.360;7.582;2024-02-21T12:54:47;11.70;99.90
21678;DHT22;11000;50.360;7.582;2024-02-21T12:57:08;11.70;99.90
21678;DHT22;11000;50.360;7.582;2024-02-21T12:59:29;11.70;99.90
21678;DHT22;11000;50.360;7.582;2024-02-21T13:01:50;11.80;99.90
21678;DHT22;11000;50.360;7.582;2024-02-21T13:04:10;11.90;99.90
21678;DHT22;11000;50.360;7.582;2024-02-21T13:06:32;11.90;99.90
21678;DHT22;11000;50.360;7.582;2024-02-21T13:08:52;11.90;99.90
21678;DHT22;11000;50.360;7.582;2024-02-21T13:11:13;12.00;99.90
21678;DHT22;11000;50.360;7.582;2024-02-21T13:13:33;12.10;99.90
21678;DHT22;11000;50.360;7.582;2024-02-21T13:15:54;12.10;99.90
21678;DHT22;11000;50.360;7.582;2024-02-21T13:18:14;12.00;99.90
21678;DHT22;11000;50.360;7.582;2024-02-21T13:20:36;12.10;99.90
21678;DHT22;11000;50.360;7.582;2024-02-21T13:22:56;12.10;99.90
21678;DHT22;11000;50.360;7.582;2024-02-21T13:25:17;12.10;99.90
21678;DHT22;11000;50.360;7.582;2024-02-21T13:27:40;12.10;99.90
21678;DHT22;11000;50.360;7.582;2024-02-21T13:30:01;12.10;99.90
21678;DHT22;11000;50.360;7.582;2024-02-21T13:32:25;12.30;99.90
21678;DHT22;11000;50.360;7.582;2024-02-21T13:34:46;12.30;99.90
21678;DHT22;11000;50.360;7.582;2024-02-21T13:37:06;12.20;99.90
21678;DHT22;11000;50.360;7.582;2024-02-21T13:39:30;12.30;99.90
21678;DHT22;11000;50.360;7.582;2024-02-21T13:41:50;12.20;99.90
21678;DHT22;11000;50.360;7.582;2024-02-21T13:44:11;12.20;99.90
21678;DHT22;11000;50.360;7.582;2024-02-21T13:46:32;12.10;99.90
21678;DHT22;11000;50.360;7.582;2024-02-21T13:49:01;12.20;99.90
21678;DHT22;11000;50.360;7.582;2024-02-21T13:51:24;12.20;99.90
21678;DHT22;11000;50.360;7.582;2024-02-21T13:53:45;12.10;99.90
21678;DHT22;11000;50.360;7.582;2024-02-21T13:56:06;12.10;99.90
21678;DHT22;11000;50.360;7.582;2024-02-21T13:58:26;12.00;99.90
21678;DHT22;11000;50.360;7.582;2024-02-21T14:00:47;12.00;99.90
21678;DHT22;11000;50.360;7.582;2024-02-21T14:03:07;12.00;99.90
21678;DHT22;11000;50.360;7.582;2024-02-21T14:05:28;12.20;99.90
21678;DHT22;11000;50.360;7.582;2024-02-21T14:07:48;12.20;99.90
21678;DHT22;11000;50.360;7.582;2024-02-21T14:10:09;12.30;99.90
21678;DHT22;11000;50.360;7.582;2024-02-21T14:12:30;12.30;99.90
21678;DHT22;11000;50.360;7.582;2024-02-21T14:14:52;12.40;99.90
21678;DHT22;11000;50.360;7.582;2024-02-21T14:17:12;12.40;99.90
21678;DHT22;11000;50.360;7.582;2024-02-21T14:19:33;12.50;99.90
21678;DHT22;11000;50.360;7.582;2024-02-21T14:21:54;12.50;99.90
21678;DHT22;11000;50.360;7.582;2024-02-21T14:24:14;12.60;99.90
21678;DHT22;11000;50.360;7.582;2024-02-21T14:26:35;12.60;99.90
21678;DHT22;11000;50.360;7.582;2024-02-21T14:28:56;12.50;99.90
21678;DHT22;11000;50.360;7.582;2024-02-21T14:31:17;12.30;99.90
21678;DHT22;11000;50.360;7.582;2024-02-21T14:33:38;12.40;99.90
21678;DHT22;11000;50.360;7.582;2024-02-21T14:35:58;12.40;99.90
21678;DHT22;11000;50.360;7.582;2024-02-21T14:38:19;12.40;99.90
21678;DHT22;11000;50.360;7.582;2024-02-21T14:40:40;12.40;99.90
21678;DHT22;11000;50.360;7.582;2024-02-21T14:43:00;12.30;99.90
21678;DHT22;11000;50.360;7.582;2024-02-21T14:45:21;12.40;99.90
21678;DHT22;11000;50.360;7.582;2024-02-21T14:47:43;12.30;99.90
21678;DHT22;11000;50.360;7.582;2024-02-21T14:50:03;12.20;99.90
21678;DHT22;11000;50.360;7.582;2024-02-21T14:52:25;12.10;99.90
21678;DHT22;11000;50.360;7.582;2024-02-21T14:54:47;12.00;99.90
21678;DHT22;11000;50.360;7.582;2024-02-21T14:57:11;11.90;99.90
21678;DHT22;11000;50.360;7.582;2024-02-21T14:59:32;12.00;99.90
21678;DHT22;11000;50.360;7.582;2024-02-21T15:01:53;11.90;99.90
21678;DHT22;11000;50.360;7.582;2024-02-21T15:04:13;11.90;99.90